createdAt,value
2023-04-17T04:16:45.900Z,13.31
2023-04-17T04:22:50.017Z,13.24
2023-04-17T04:28:54.700Z,13.31
2023-04-17T04:35:26.182Z,13.34
2023-04-17T04:41:30.265Z,13.45
2023-04-17T04:47:33.286Z,13.42
2023-04-17T04:53:36.286Z,13.43
2023-04-17T04:59:39.133Z,13.41
2023-04-17T05:06:02.593Z,13.33
2023-04-17T05:12:13.080Z,13.37
2023-04-17T05:18:16.144Z,13.47
2023-04-17T05:24:19.526Z,13.43
2023-04-17T05:30:24.816Z,13.44
2023-04-17T05:36:37.100Z,13.33
2023-04-17T05:42:42.739Z,13.46
2023-04-17T05:48:45.800Z,13.26
2023-04-17T05:54:49.581Z,13.35
2023-04-17T06:00:56.350Z,13.33
2023-04-17T06:06:59.711Z,13.28
2023-04-17T06:13:03.240Z,13.32
2023-04-17T06:19:07.595Z,13.39
2023-04-17T06:25:10.735Z,13.46
2023-04-17T06:31:13.578Z,13.53
2023-04-17T06:37:16.776Z,13.56
2023-04-17T06:43:19.629Z,13.59
2023-04-17T06:49:23.456Z,13.57
2023-04-17T06:55:27.184Z,13.68
2023-04-17T07:01:31.686Z,13.47
2023-04-17T07:07:36.757Z,13.49
2023-04-17T07:13:39.002Z,13.66
2023-04-17T07:19:41.558Z,13.71
2023-04-17T07:25:44.124Z,13.76
2023-04-17T07:31:46.575Z,13.70
2023-04-17T07:37:49.773Z,13.81
2023-04-17T07:43:52.194Z,13.77
2023-04-17T07:49:54.488Z,13.67
2023-04-17T07:55:57.056Z,13.74
2023-04-17T08:02:00.154Z,13.70
2023-04-17T08:08:02.827Z,13.80
2023-04-17T08:14:06.482Z,13.76
2023-04-17T08:20:13.781Z,13.87
2023-04-17T08:26:19.362Z,13.68
2023-04-17T08:32:22.027Z,13.68
2023-04-17T08:38:27.510Z,13.67
2023-04-17T08:44:29.853Z,13.71
2023-04-17T08:50:32.976Z,13.63
2023-04-17T08:56:36.620Z,13.58
2023-04-17T09:02:56.663Z,13.62
2023-04-17T09:09:05.190Z,13.63
2023-04-17T09:15:17.574Z,13.53
2023-04-17T09:21:20.492Z,13.43
2023-04-17T09:27:25.177Z,13.41
2023-04-17T09:33:27.667Z,13.26
2023-04-17T09:39:29.869Z,13.18
2023-04-17T09:45:37.123Z,13.17
2023-04-17T09:51:40.120Z,13.24
2023-04-17T09:57:44.645Z,13.41
2023-04-17T10:03:47.728Z,13.11
2023-04-17T10:09:52.092Z,12.98
2023-04-17T10:15:54.404Z,13.11
2023-04-17T10:22:20.911Z,13.33
2023-04-17T10:28:50.314Z,13.09
2023-04-17T10:35:01.185Z,12.81
2023-04-17T10:41:09.710Z,12.78
2023-04-17T10:47:14.659Z,12.55
2023-04-17T10:53:39.418Z,12.65
2023-04-17T10:59:45.343Z,12.68
2023-04-17T11:05:48.449Z,12.90
2023-04-17T11:11:51.378Z,12.81
2023-04-17T11:17:56.496Z,12.83
2023-04-17T11:24:03.483Z,12.99
2023-04-17T11:30:06.586Z,13.11
2023-04-17T11:36:09.167Z,12.87
2023-04-17T11:42:11.877Z,12.96
2023-04-17T11:48:16.586Z,13.37
2023-04-17T11:54:26.693Z,13.17
2023-04-17T12:00:32.274Z,13.17
2023-04-17T12:06:38.051Z,13.22
2023-04-17T12:12:41.456Z,13.29
2023-04-17T12:18:44.726Z,13.39
2023-04-17T12:24:46.937Z,13.42
2023-04-17T12:30:49.284Z,13.40
2023-04-17T12:36:51.567Z,13.24
2023-04-17T12:42:54.218Z,13.29
2023-04-17T12:48:58.941Z,13.51
2023-04-17T12:55:01.508Z,13.79
2023-04-17T13:01:04.551Z,13.89
2023-04-17T13:07:08.688Z,14.24
2023-04-17T13:13:11.894Z,14.27
2023-04-17T13:19:15.470Z,14.29
2023-04-17T13:25:18.011Z,14.26
2023-04-17T13:31:20.330Z,14.34
2023-04-17T13:37:22.610Z,14.61
2023-04-17T13:43:24.855Z,14.59
2023-04-17T13:49:28.050Z,14.29
2023-04-17T13:55:30.251Z,14.08
2023-04-17T14:01:32.949Z,13.96
2023-04-17T14:07:36.367Z,13.92
2023-04-17T14:13:38.757Z,13.82
2023-04-17T14:19:40.986Z,14.08
2023-04-17T14:25:43.260Z,14.34
2023-04-17T14:31:46.486Z,14.32
2023-04-17T14:37:48.699Z,14.05
2023-04-17T14:43:50.918Z,14.10
2023-04-17T14:49:53.592Z,14.15
2023-04-17T14:55:55.845Z,13.95
2023-04-17T15:01:58.303Z,14.18
2023-04-17T15:08:00.550Z,14.06
2023-04-17T15:14:02.976Z,13.90
2023-04-17T15:20:06.345Z,13.89
2023-04-17T15:26:09.445Z,13.81
2023-04-17T15:32:13.267Z,13.72
2023-04-17T15:38:15.490Z,13.93
2023-04-17T15:44:17.914Z,13.79
2023-04-17T15:50:21.416Z,13.91
2023-04-17T15:56:23.971Z,13.80
2023-04-17T16:02:26.348Z,13.88
2023-04-17T16:08:28.710Z,13.95
2023-04-17T16:14:31.068Z,13.88
2023-04-17T16:20:33.350Z,13.90
2023-04-17T16:26:37.083Z,13.66
2023-04-17T16:32:39.488Z,13.45
2023-04-17T16:38:42.622Z,13.62
2023-04-17T16:44:48.278Z,13.55
2023-04-17T16:50:50.890Z,13.62
2023-04-17T16:56:56.112Z,13.52
2023-04-17T17:02:58.551Z,13.49
2023-04-17T17:09:01.114Z,13.47
2023-04-17T17:15:04.013Z,13.29
2023-04-17T17:21:07.463Z,13.33
2023-04-17T17:27:09.684Z,13.25
2023-04-17T17:33:12.370Z,13.08
2023-04-17T17:39:21.466Z,13.07
2023-04-17T17:45:23.661Z,12.99
2023-04-17T17:51:26.160Z,12.99
2023-04-17T17:57:38.471Z,12.93
2023-04-17T18:03:49.729Z,12.95
2023-04-17T18:09:52.496Z,12.99
2023-04-17T18:15:55.370Z,13.00
2023-04-17T18:21:58.361Z,12.86
2023-04-17T18:28:03.017Z,12.93
2023-04-17T18:34:05.636Z,12.87
2023-04-17T18:40:10.709Z,12.81
2023-04-17T18:46:12.992Z,13.01
2023-04-17T18:52:15.506Z,12.86
2023-04-17T18:58:17.652Z,12.77
2023-04-17T19:04:20.098Z,12.68
2023-04-17T19:10:22.440Z,12.77
2023-04-17T19:16:24.757Z,12.59
2023-04-17T19:22:26.994Z,12.45
2023-04-17T19:28:29.257Z,12.36
2023-04-17T19:34:31.577Z,12.41
2023-04-17T19:40:33.930Z,12.28
2023-04-17T19:46:36.832Z,12.20
2023-04-17T19:52:40.203Z,12.06
2023-04-17T19:58:43.499Z,12.03
2023-04-17T20:04:47.010Z,12.02
2023-04-17T20:10:49.290Z,11.93
2023-04-17T20:16:51.629Z,11.92
2023-04-17T20:22:53.977Z,11.80
2023-04-17T20:28:56.230Z,11.66
2023-04-17T20:34:58.671Z,11.67
2023-04-17T20:41:01.174Z,11.60
2023-04-17T20:47:04.141Z,11.71
2023-04-17T20:53:06.379Z,11.72
2023-04-17T20:59:08.669Z,11.70
2023-04-17T21:05:10.922Z,11.82
2023-04-17T21:11:13.493Z,11.88
2023-04-17T21:17:15.766Z,11.88
2023-04-17T21:23:19.426Z,12.01
2023-04-17T21:29:21.887Z,12.10
2023-04-17T21:35:24.482Z,12.16
2023-04-17T21:41:26.963Z,12.05
2023-04-17T21:47:29.284Z,12.16
2023-04-17T21:53:38.134Z,12.17
2023-04-17T21:59:40.655Z,12.16
2023-04-17T22:05:42.877Z,12.14
2023-04-17T22:11:45.969Z,12.14
2023-04-17T22:17:48.301Z,12.09
2023-04-17T22:24:09.469Z,11.97
2023-04-17T22:30:48.847Z,12.00
2023-04-17T22:37:09.834Z,12.02
2023-04-17T22:43:30.567Z,12.11
2023-04-17T22:49:38.353Z,12.00
2023-04-17T22:55:41.228Z,11.96
2023-04-17T23:01:43.444Z,11.90
2023-04-17T23:07:45.733Z,11.87
2023-04-17T23:13:47.980Z,11.97
2023-04-17T23:19:50.290Z,11.91
2023-04-17T23:25:52.538Z,12.06
2023-04-17T23:31:55.698Z,12.13
2023-04-17T23:37:58.024Z,12.08
2023-04-17T23:44:00.768Z,12.16
2023-04-17T23:50:03.818Z,12.20
2023-04-17T23:56:06.281Z,12.16
